createdAt,value
2023-04-09T00:02:28.437Z,15.00
2023-04-09T00:04:57.334Z,12.50
2023-04-09T00:07:26.280Z,14.00
2023-04-09T00:09:55.274Z,13.90
2023-04-09T00:12:24.084Z,14.00
2023-04-09T00:14:53.004Z,13.60
2023-04-09T00:17:21.894Z,13.50
2023-04-09T00:19:50.587Z,14.20
2023-04-09T00:22:19.445Z,14.40
2023-04-09T00:24:48.188Z,15.80
2023-04-09T00:27:16.971Z,12.30
2023-04-09T00:29:45.708Z,14.60
2023-04-09T00:32:14.596Z,14.90
2023-04-09T00:34:43.666Z,13.30
2023-04-09T00:37:13.269Z,14.40
2023-04-09T00:39:42.297Z,18.40
2023-04-09T00:42:11.128Z,15.70
2023-04-09T00:44:40.435Z,14.90
2023-04-09T00:47:09.143Z,19.50
2023-04-09T00:49:37.854Z,17.50
2023-04-09T00:52:07.622Z,17.60
2023-04-09T00:54:36.538Z,17.60
2023-04-09T00:57:05.601Z,19.50
2023-04-09T00:59:34.555Z,20.00
2023-04-09T01:02:03.366Z,15.80
2023-04-09T01:04:32.844Z,15.20
2023-04-09T01:07:17.072Z,16.90
2023-04-09T01:09:54.227Z,14.60
2023-04-09T01:12:32.799Z,17.30
2023-04-09T01:15:07.037Z,15.80
2023-04-09T01:17:41.867Z,17.30
2023-04-09T01:20:18.880Z,16.00
2023-04-09T01:23:01.616Z,16.00
2023-04-09T01:25:45.720Z,15.70
2023-04-09T01:28:19.739Z,13.30
2023-04-09T01:30:52.925Z,15.90
2023-04-09T01:33:23.000Z,13.00
2023-04-09T01:35:52.588Z,14.20
2023-04-09T01:38:22.981Z,13.60
2023-04-09T01:40:53.402Z,15.50
2023-04-09T01:43:24.247Z,16.00
2023-04-09T01:45:53.954Z,14.20
2023-04-09T01:48:24.019Z,15.60
2023-04-09T01:50:54.172Z,14.90
2023-04-09T01:53:23.605Z,15.20
2023-04-09T01:55:52.252Z,13.90
2023-04-09T01:58:21.553Z,15.60
2023-04-09T02:00:52.113Z,15.40
2023-04-09T02:03:25.617Z,17.00
2023-04-09T02:06:00.312Z,13.90
2023-04-09T02:08:30.885Z,14.90
2023-04-09T02:11:04.412Z,15.70
2023-04-09T02:13:35.239Z,15.60
2023-04-09T02:16:05.705Z,17.90
2023-04-09T02:18:34.562Z,13.30
2023-04-09T02:21:05.239Z,14.00
2023-04-09T02:23:34.680Z,15.20
2023-04-09T02:26:03.710Z,14.10
2023-04-09T02:28:32.773Z,15.30
2023-04-09T02:31:02.404Z,13.50
2023-04-09T02:33:32.562Z,14.40
2023-04-09T02:36:01.348Z,13.50
2023-04-09T02:38:30.867Z,15.20
2023-04-09T02:41:00.559Z,15.30
2023-04-09T02:43:29.488Z,15.10
2023-04-09T02:45:58.887Z,14.10
2023-04-09T02:48:27.814Z,14.10
2023-04-09T02:50:56.761Z,13.50
2023-04-09T02:53:25.559Z,14.90
2023-04-09T02:55:54.765Z,14.50
2023-04-09T02:58:23.424Z,15.50
2023-04-09T03:00:52.179Z,13.80
2023-04-09T03:03:21.117Z,16.00
2023-04-09T03:05:50.266Z,15.80
2023-04-09T03:08:19.419Z,16.60
2023-04-09T03:10:48.307Z,17.20
2023-04-09T03:13:17.561Z,15.20
2023-04-09T03:15:46.480Z,15.60
2023-04-09T03:18:15.677Z,16.70
2023-04-09T03:20:44.800Z,17.80
2023-04-09T03:23:13.828Z,15.40
2023-04-09T03:25:51.339Z,17.00
2023-04-09T03:28:30.634Z,14.80
2023-04-09T03:31:10.075Z,15.80
2023-04-09T03:33:49.193Z,15.60
2023-04-09T03:36:18.340Z,12.90
2023-04-09T03:38:47.173Z,13.40
2023-04-09T03:41:16.407Z,14.80
2023-04-09T03:43:45.277Z,16.30
2023-04-09T03:46:14.669Z,17.60
2023-04-09T03:48:45.072Z,18.70
2023-04-09T03:51:14.561Z,20.10
2023-04-09T03:53:44.254Z,19.70
2023-04-09T03:56:13.067Z,20.20
2023-04-09T03:58:42.177Z,18.40
2023-04-09T04:01:11.548Z,18.20
2023-04-09T04:03:40.362Z,19.30
2023-04-09T04:06:09.620Z,19.70
2023-04-09T04:08:38.535Z,18.20
2023-04-09T04:11:07.906Z,19.80
2023-04-09T04:13:36.963Z,17.70
2023-04-09T04:16:10.148Z,17.40
2023-04-09T04:18:39.136Z,16.50
2023-04-09T04:21:14.839Z,17.00
2023-04-09T04:23:44.035Z,18.90
2023-04-09T04:26:13.336Z,17.90
2023-04-09T04:28:42.435Z,16.80
2023-04-09T04:31:12.538Z,19.10
2023-04-09T04:33:42.917Z,18.90
2023-04-09T04:36:13.604Z,20.10
2023-04-09T04:38:42.770Z,18.70
2023-04-09T04:41:13.076Z,19.10
2023-04-09T04:43:41.689Z,20.20
2023-04-09T04:46:10.689Z,19.90
2023-04-09T04:48:39.421Z,20.60
2023-04-09T04:51:08.913Z,19.40
2023-04-09T04:53:37.584Z,21.00
2023-04-09T04:56:07.442Z,18.90
2023-04-09T04:58:36.310Z,21.40
2023-04-09T05:01:05.226Z,20.50
2023-04-09T05:03:34.257Z,20.00
2023-04-09T05:06:03.359Z,19.50
2023-04-09T05:08:32.393Z,20.50
2023-04-09T05:11:01.754Z,20.50
2023-04-09T05:13:30.675Z,21.30
2023-04-09T05:15:59.425Z,24.30
2023-04-09T05:18:28.379Z,23.50
2023-04-09T05:20:57.107Z,24.80
2023-04-09T05:23:27.048Z,23.30
2023-04-09T05:25:55.668Z,23.40
2023-04-09T05:28:24.326Z,22.80
2023-04-09T05:30:53.132Z,27.50
2023-04-09T05:33:22.232Z,25.20
2023-04-09T05:35:51.080Z,22.30
2023-04-09T05:38:20.268Z,27.30
2023-04-09T05:40:49.450Z,20.70
2023-04-09T05:43:18.759Z,22.80
2023-04-09T05:45:48.068Z,24.40
2023-04-09T05:48:18.060Z,27.00
2023-04-09T05:50:55.151Z,22.60
2023-04-09T05:53:24.778Z,21.70
2023-04-09T05:55:53.657Z,24.60
2023-04-09T05:58:22.537Z,23.70
2023-04-09T06:00:52.274Z,24.10
2023-04-09T06:03:21.290Z,26.10
2023-04-09T06:05:50.437Z,25.20
2023-04-09T06:08:19.537Z,23.30
2023-04-09T06:10:48.723Z,24.10
2023-04-09T06:13:17.931Z,24.30
2023-04-09T06:15:46.737Z,32.80
2023-04-09T06:18:15.414Z,28.90
2023-04-09T06:20:44.285Z,29.40
2023-04-09T06:23:13.033Z,29.30
2023-04-09T06:25:41.889Z,24.30
2023-04-09T06:28:11.219Z,26.00
2023-04-09T06:30:40.180Z,28.60
2023-04-09T06:33:08.931Z,22.70
2023-04-09T06:35:37.933Z,25.60
2023-04-09T06:38:07.380Z,22.80
2023-04-09T06:40:36.635Z,27.70
2023-04-09T06:43:05.508Z,26.20
2023-04-09T06:45:34.991Z,25.50
2023-04-09T06:48:04.722Z,23.80
2023-04-09T06:50:33.935Z,23.90
2023-04-09T06:53:02.799Z,29.10
2023-04-09T06:55:31.881Z,23.20
2023-04-09T06:58:13.364Z,28.20
2023-04-09T07:00:45.138Z,27.30
2023-04-09T07:03:19.167Z,24.90
2023-04-09T07:05:56.702Z,25.90
2023-04-09T07:08:30.966Z,25.10
2023-04-09T07:11:00.752Z,26.30
2023-04-09T07:13:29.667Z,25.50
2023-04-09T07:15:58.746Z,24.70
2023-04-09T07:18:28.124Z,26.30
2023-04-09T07:20:56.907Z,26.10
2023-04-09T07:23:25.847Z,27.00
2023-04-09T07:25:55.548Z,27.40
2023-04-09T07:28:27.317Z,25.90
2023-04-09T07:31:03.599Z,26.70
2023-04-09T07:33:44.090Z,22.20
2023-04-09T07:36:13.591Z,26.30
2023-04-09T07:38:44.328Z,25.00
2023-04-09T07:41:13.339Z,23.80
2023-04-09T07:43:42.203Z,25.70
2023-04-09T07:46:11.515Z,26.00
2023-04-09T07:48:40.696Z,22.40
2023-04-09T07:51:11.650Z,23.40
2023-04-09T07:53:42.462Z,22.30
2023-04-09T07:56:12.012Z,20.80
2023-04-09T07:58:58.858Z,20.80
2023-04-09T08:01:31.066Z,18.80
2023-04-09T08:04:00.117Z,19.10
2023-04-09T08:06:29.211Z,17.80
2023-04-09T08:09:00.945Z,18.80
2023-04-09T08:11:29.805Z,20.50
2023-04-09T08:14:03.571Z,18.50
2023-04-09T08:16:42.694Z,16.30
2023-04-09T08:19:13.887Z,20.00
2023-04-09T08:21:49.263Z,16.40
2023-04-09T08:24:21.246Z,16.20
2023-04-09T08:26:50.073Z,21.10
2023-04-09T08:29:18.860Z,18.30
2023-04-09T08:31:48.250Z,15.80
2023-04-09T08:34:20.659Z,16.80
2023-04-09T08:36:49.518Z,14.20
2023-04-09T08:39:19.755Z,16.70
2023-04-09T08:41:48.833Z,16.00
2023-04-09T08:44:19.250Z,15.00
2023-04-09T08:46:48.010Z,15.90
2023-04-09T08:49:16.810Z,15.30
2023-04-09T08:51:48.471Z,11.00
2023-04-09T08:54:19.659Z,11.00
2023-04-09T08:56:48.850Z,12.70
2023-04-09T08:59:18.832Z,10.50
2023-04-09T09:01:53.809Z,11.50
2023-04-09T09:04:22.630Z,12.50
2023-04-09T09:06:54.723Z,15.40
2023-04-09T09:09:26.511Z,12.00
2023-04-09T09:11:55.605Z,13.70
2023-04-09T09:14:24.409Z,12.30
2023-04-09T09:17:07.783Z,13.10
2023-04-09T09:19:39.068Z,14.30
2023-04-09T09:22:10.607Z,13.30
2023-04-09T09:24:49.830Z,14.60
2023-04-09T09:27:40.269Z,13.70
2023-04-09T09:30:21.375Z,14.20
2023-04-09T09:32:53.433Z,12.90
2023-04-09T09:35:23.039Z,13.00
2023-04-09T09:38:03.824Z,13.90
2023-04-09T09:40:32.918Z,13.00
2023-04-09T09:43:02.294Z,12.90
2023-04-09T09:45:32.520Z,10.00
2023-04-09T09:48:01.986Z,16.10
2023-04-09T09:50:32.110Z,13.80
2023-04-09T09:53:05.184Z,15.00
2023-04-09T09:55:36.999Z,12.00
2023-04-09T09:58:16.692Z,12.40
2023-04-09T10:00:48.563Z,14.20
2023-04-09T10:03:23.717Z,11.70
2023-04-09T10:05:53.568Z,11.70
2023-04-09T10:08:23.686Z,11.50
2023-04-09T10:10:53.879Z,13.80
2023-04-09T10:13:29.394Z,14.00
2023-04-09T10:15:59.786Z,11.80
2023-04-09T10:18:28.941Z,12.30
2023-04-09T10:21:04.276Z,11.40
2023-04-09T10:23:38.135Z,11.20
2023-04-09T10:26:07.172Z,10.80
2023-04-09T10:28:38.580Z,11.30
2023-04-09T10:31:09.050Z,13.20
2023-04-09T10:33:39.606Z,13.90
2023-04-09T10:36:13.007Z,12.10
2023-04-09T10:38:56.783Z,11.90
2023-04-09T10:41:43.190Z,12.10
2023-04-09T10:44:34.367Z,12.20
2023-04-09T10:47:09.414Z,13.00
2023-04-09T10:49:50.256Z,13.50
2023-04-09T10:52:36.447Z,11.20
2023-04-09T10:55:21.625Z,14.40
2023-04-09T10:58:04.507Z,12.70
2023-04-09T11:00:41.729Z,12.70
2023-04-09T11:03:25.333Z,13.50
2023-04-09T11:06:02.308Z,12.40
2023-04-09T11:08:37.339Z,12.80
2023-04-09T11:11:06.962Z,11.20
2023-04-09T11:13:42.972Z,13.90
2023-04-09T11:16:24.807Z,12.90
2023-04-09T11:18:58.565Z,10.80
2023-04-09T11:21:39.099Z,12.90
2023-04-09T11:24:08.519Z,10.50
2023-04-09T11:26:41.205Z,11.50
2023-04-09T11:29:10.233Z,11.80
2023-04-09T11:31:39.602Z,9.50
2023-04-09T11:34:12.120Z,11.40
2023-04-09T11:36:41.192Z,11.50
2023-04-09T11:39:10.237Z,14.10
2023-04-09T11:41:43.015Z,13.00
2023-04-09T11:44:12.168Z,13.50
2023-04-09T11:46:56.815Z,15.20
2023-04-09T11:49:55.640Z,12.40
2023-04-09T11:52:39.192Z,12.90
2023-04-09T11:55:30.834Z,13.70
2023-04-09T11:58:07.831Z,13.20
2023-04-09T12:00:50.003Z,17.50
2023-04-09T12:04:03.327Z,13.30
2023-04-09T12:07:04.981Z,12.90
2023-04-09T12:10:01.565Z,13.60
2023-04-09T12:12:38.262Z,13.30
2023-04-09T12:15:32.797Z,15.50
2023-04-09T12:18:17.898Z,18.40
2023-04-09T12:21:07.932Z,13.10
2023-04-09T12:26:44.509Z,10.40
2023-04-09T12:29:48.739Z,15.10
2023-04-09T12:35:52.907Z,13.00
2023-04-09T12:38:36.067Z,11.60
2023-04-09T12:41:16.571Z,11.80
2023-04-09T12:44:01.330Z,13.70
2023-04-09T12:47:33.383Z,11.90
2023-04-09T12:50:32.612Z,11.50
2023-04-09T12:53:13.916Z,11.70
2023-04-09T12:56:00.268Z,10.80
2023-04-09T12:58:42.562Z,11.70
2023-04-09T13:01:21.988Z,11.00
2023-04-09T13:04:10.423Z,11.30
2023-04-09T13:07:17.873Z,9.20
2023-04-09T13:10:41.360Z,10.80
2023-04-09T13:16:30.986Z,12.30
2023-04-09T13:19:19.550Z,11.10
2023-04-09T13:22:14.765Z,11.90
2023-04-09T13:36:22.985Z,12.70
2023-04-09T13:39:45.818Z,10.60
2023-04-09T13:43:04.609Z,11.70
2023-04-09T13:50:36.198Z,10.30
2023-04-09T13:57:50.578Z,9.50
2023-04-09T14:00:25.678Z,9.00
2023-04-09T14:03:06.850Z,9.40
2023-04-09T14:06:40.074Z,8.50
2023-04-09T14:13:10.451Z,9.80
2023-04-09T14:15:41.892Z,8.00
2023-04-09T14:18:27.410Z,8.80
2023-04-09T14:21:25.494Z,7.40
2023-04-09T14:23:56.483Z,6.90
2023-04-09T14:26:31.704Z,8.90
2023-04-09T14:29:07.009Z,9.50
2023-04-09T14:31:44.428Z,9.00
2023-04-09T14:34:13.854Z,10.30
2023-04-09T14:36:50.194Z,8.20
2023-04-09T14:39:51.704Z,11.60
2023-04-09T14:42:36.412Z,9.60
2023-04-09T14:45:11.945Z,8.20
2023-04-09T14:47:50.402Z,9.90
2023-04-09T14:50:30.158Z,9.00
2023-04-09T14:53:04.289Z,10.00
2023-04-09T14:56:09.976Z,8.30
2023-04-09T15:01:33.376Z,7.60
2023-04-09T15:07:25.356Z,6.70
2023-04-09T15:09:59.709Z,6.50
2023-04-09T15:12:36.246Z,6.90
2023-04-09T15:15:28.000Z,10.60
2023-04-09T15:18:25.170Z,7.00
2023-04-09T15:21:03.778Z,7.50
2023-04-09T15:23:57.823Z,6.50
2023-04-09T15:26:51.721Z,11.10
2023-04-09T15:29:51.047Z,11.60
2023-04-09T15:32:38.049Z,10.40
2023-04-09T15:35:29.395Z,10.10
2023-04-09T15:38:34.598Z,11.00
2023-04-09T15:41:18.385Z,10.80
2023-04-09T15:44:01.271Z,12.20
2023-04-09T15:47:12.620Z,12.10
2023-04-09T15:50:09.965Z,11.50
2023-04-09T15:52:53.880Z,12.40
2023-04-09T15:55:48.966Z,12.80
2023-04-09T15:58:29.495Z,13.80
2023-04-09T16:02:39.578Z,16.70
2023-04-09T16:04:43.186Z,11.00
2023-04-09T16:07:52.437Z,12.50
2023-04-09T16:11:02.970Z,10.80
2023-04-09T16:14:02.866Z,12.10
2023-04-09T16:17:06.082Z,10.20
2023-04-09T16:19:51.498Z,12.30
2023-04-09T16:22:36.601Z,10.50
2023-04-09T16:29:01.006Z,12.60
2023-04-09T16:31:44.522Z,12.40
2023-04-09T16:34:32.581Z,11.10
2023-04-09T16:37:12.913Z,11.10
2023-04-09T16:39:49.188Z,12.30
2023-04-09T16:42:41.035Z,11.30
2023-04-09T16:45:28.732Z,10.00
2023-04-09T16:48:25.564Z,10.60
2023-04-09T16:51:24.757Z,11.50
2023-04-09T16:54:19.611Z,10.90
2023-04-09T16:57:25.407Z,10.70
2023-04-09T17:00:12.922Z,13.50
2023-04-09T17:02:46.160Z,11.90
2023-04-09T17:06:11.174Z,12.70
2023-04-09T17:09:06.906Z,13.70
2023-04-09T17:12:04.108Z,14.60
2023-04-09T17:18:25.535Z,21.00
2023-04-09T17:21:16.489Z,22.90
2023-04-09T17:23:46.668Z,22.50
2023-04-09T17:26:56.479Z,22.60
2023-04-09T17:29:37.782Z,22.30
2023-04-09T17:32:21.094Z,24.20
2023-04-09T17:35:08.625Z,23.50
2023-04-09T17:37:38.432Z,28.20
2023-04-09T17:40:16.590Z,26.50
2023-04-09T17:42:47.366Z,26.90
2023-04-09T17:45:32.360Z,23.70
2023-04-09T17:50:38.579Z,19.40
2023-04-09T17:53:32.204Z,21.00
2023-04-09T17:56:22.484Z,17.70
2023-04-09T17:58:54.597Z,18.00
2023-04-09T18:02:04.598Z,18.70
2023-04-09T18:12:00.272Z,23.20
2023-04-09T18:14:41.745Z,21.90
2023-04-09T18:21:19.374Z,19.90
2023-04-09T18:24:21.054Z,19.30
2023-04-09T18:26:58.165Z,17.70
2023-04-09T18:30:03.451Z,17.80
2023-04-09T18:32:58.052Z,17.70
2023-04-09T18:36:18.526Z,15.30
2023-04-09T18:39:56.435Z,22.80
2023-04-09T18:43:19.489Z,22.10
2023-04-09T18:46:07.692Z,22.60
2023-04-09T18:49:29.711Z,20.70
2023-04-09T18:52:03.985Z,19.90
2023-04-09T18:54:51.152Z,19.30
2023-04-09T18:57:20.895Z,17.20
2023-04-09T18:59:53.600Z,18.20
2023-04-09T19:02:25.824Z,17.90
2023-04-09T19:04:56.657Z,19.00
2023-04-09T19:07:27.492Z,19.20
2023-04-09T19:10:00.649Z,24.00
2023-04-09T19:12:30.290Z,25.70
2023-04-09T19:15:06.051Z,27.60
2023-04-09T19:17:47.685Z,26.10
2023-04-09T19:20:40.341Z,27.40
2023-04-09T19:23:16.197Z,25.60
2023-04-09T19:26:09.797Z,28.30
2023-04-09T19:28:46.913Z,24.40
2023-04-09T19:31:29.526Z,26.00
2023-04-09T19:34:08.676Z,26.60
2023-04-09T19:37:14.138Z,29.10
2023-04-09T19:40:43.851Z,26.80
2023-04-09T19:43:15.199Z,26.70
2023-04-09T19:45:46.921Z,29.30
2023-04-09T19:48:17.549Z,34.10
2023-04-09T19:50:51.094Z,36.60
2023-04-09T19:53:44.184Z,35.50
2023-04-09T19:56:16.184Z,36.80
2023-04-09T19:59:00.518Z,34.60
2023-04-09T20:01:38.412Z,35.40
2023-04-09T20:15:57.757Z,34.20
2023-04-09T20:20:15.767Z,26.60
2023-04-09T20:23:09.466Z,29.70
2023-04-09T20:30:07.252Z,29.10
2023-04-09T20:32:54.161Z,22.40
2023-04-09T20:36:37.560Z,21.30
2023-04-09T20:40:20.322Z,22.70
2023-04-09T21:02:10.436Z,16.70
2023-04-09T21:05:01.615Z,18.70
2023-04-09T21:07:58.633Z,17.60
2023-04-09T21:10:37.639Z,20.70
2023-04-09T21:13:29.211Z,26.10
2023-04-09T21:16:35.457Z,26.20
2023-04-09T21:22:11.303Z,17.50
2023-04-09T21:25:01.965Z,17.80
2023-04-09T21:28:00.643Z,15.80
2023-04-09T21:31:00.230Z,13.60
2023-04-09T21:34:07.272Z,12.60
2023-04-09T21:37:05.770Z,12.30
2023-04-09T21:40:23.047Z,12.70
2023-04-09T21:43:13.999Z,11.50
2023-04-09T21:46:37.671Z,12.90
2023-04-09T21:49:01.890Z,16.20
2023-04-09T21:52:01.829Z,18.40
2023-04-09T21:58:00.889Z,16.80
2023-04-09T22:01:02.262Z,15.90
2023-04-09T22:04:09.555Z,18.20
2023-04-09T22:10:21.119Z,17.90
2023-04-09T22:13:16.288Z,19.90
2023-04-09T22:16:00.251Z,18.60
2023-04-09T22:18:48.238Z,17.70
2023-04-09T22:21:34.140Z,18.80
2023-04-09T22:24:09.124Z,18.40
2023-04-09T22:26:57.136Z,23.40
2023-04-09T22:29:38.222Z,20.30
2023-04-09T22:32:53.722Z,21.50
2023-04-09T22:35:38.172Z,20.80
2023-04-09T22:38:15.796Z,22.40
2023-04-09T22:40:52.115Z,16.80
2023-04-09T22:43:40.665Z,19.00
2023-04-09T22:46:16.155Z,18.10
2023-04-09T22:48:47.348Z,18.30
2023-04-09T22:51:40.164Z,17.20
2023-04-09T22:54:16.086Z,18.50
2023-04-09T22:56:48.301Z,19.00
2023-04-09T22:59:21.335Z,18.90
2023-04-09T23:04:45.805Z,23.10
2023-04-09T23:07:20.388Z,20.00
2023-04-09T23:13:52.981Z,18.90
2023-04-09T23:16:37.376Z,19.50
2023-04-09T23:19:17.068Z,16.90
2023-04-09T23:21:49.700Z,20.60
2023-04-09T23:24:28.901Z,20.20
2023-04-09T23:27:16.041Z,19.60
2023-04-09T23:29:51.132Z,20.70
2023-04-09T23:32:36.458Z,21.50
2023-04-09T23:35:07.238Z,21.80
2023-04-09T23:37:42.974Z,21.10
2023-04-09T23:40:32.659Z,23.50
2023-04-09T23:43:05.584Z,26.40
2023-04-09T23:45:50.293Z,25.10
2023-04-09T23:48:23.057Z,23.50
2023-04-09T23:50:56.810Z,23.20
2023-04-09T23:53:31.455Z,21.30
2023-04-09T23:58:37.002Z,22.30
